createdAt,value
2018-08-19T00:00:56.490Z,1018.14
2018-08-19T00:01:57.379Z,1018.06
2018-08-19T00:02:56.434Z,1018.13
2018-08-19T00:03:56.933Z,1018.08
2018-08-19T00:04:56.430Z,1018.07
2018-08-19T00:05:56.883Z,1018.10
2018-08-19T00:06:56.889Z,1018.09
2018-08-19T00:07:56.877Z,1018.11
2018-08-19T00:08:56.443Z,1018.11
2018-08-19T00:09:56.878Z,1018.10
2018-08-19T00:10:56.882Z,1018.11
2018-08-19T00:11:56.888Z,1018.10
2018-08-19T00:12:56.900Z,1018.11
2018-08-19T00:13:56.438Z,1018.10
2018-08-19T00:14:56.880Z,1018.05
2018-08-19T00:15:56.882Z,1018.04
2018-08-19T00:16:56.072Z,1018.04
2018-08-19T00:17:56.050Z,1018.01
2018-08-19T00:18:56.448Z,1018.02
2018-08-19T00:19:56.882Z,1018.01
2018-08-19T00:20:56.888Z,1018.02
2018-08-19T00:21:56.882Z,1018.00
2018-08-19T00:22:58.882Z,1017.98
2018-08-19T00:23:56.449Z,1017.98
2018-08-19T00:24:56.383Z,1017.99
2018-08-19T00:25:56.383Z,1017.98
2018-08-19T00:26:56.385Z,1017.97
2018-08-19T00:27:56.380Z,1018.00
2018-08-19T00:28:55.936Z,1018.00
2018-08-19T00:29:56.401Z,1018.02
2018-08-19T00:30:56.393Z,1018.09
2018-08-19T00:31:56.390Z,1018.08
2018-08-19T00:32:55.662Z,1018.07
2018-08-19T00:33:55.683Z,1018.08
2018-08-19T00:34:55.613Z,1018.09
2018-08-19T00:35:56.389Z,1018.12
2018-08-19T00:36:56.385Z,1018.10
2018-08-19T00:37:56.386Z,1018.08
2018-08-19T00:38:55.937Z,1018.10
2018-08-19T00:39:55.946Z,1018.09
2018-08-19T00:40:56.386Z,1018.08
2018-08-19T00:41:56.385Z,1018.09
2018-08-19T00:42:56.388Z,1018.05
2018-08-19T00:43:55.888Z,1018.14
2018-08-19T00:44:55.442Z,1018.09
2018-08-19T00:45:55.886Z,1018.07
2018-08-19T00:46:55.893Z,1018.09
2018-08-19T00:47:55.276Z,1018.10
2018-08-19T00:48:55.887Z,1018.07
2018-08-19T00:49:55.455Z,1018.10
2018-08-19T00:50:55.202Z,1018.10
2018-08-19T00:51:55.888Z,1018.09
2018-08-19T00:52:55.902Z,1018.10
2018-08-19T00:53:55.893Z,1018.06
2018-08-19T00:54:55.450Z,1018.09
2018-08-19T00:55:55.114Z,1018.05
2018-08-19T00:56:55.897Z,1018.03
2018-08-19T00:57:55.889Z,1018.05
2018-08-19T00:58:55.888Z,1018.09
2018-08-19T00:59:55.890Z,1018.08
2018-08-19T01:00:55.448Z,1018.04
2018-08-19T01:01:54.912Z,1018.01
2018-08-19T01:02:54.888Z,1017.99
2018-08-19T01:03:55.389Z,1018.03
2018-08-19T01:04:55.388Z,1018.02
2018-08-19T01:05:54.947Z,1018.03
2018-08-19T01:06:55.395Z,1018.01
2018-08-19T01:07:55.398Z,1018.03
2018-08-19T01:08:54.729Z,1018.04
2018-08-19T01:09:55.391Z,1018.03
2018-08-19T01:10:54.950Z,1018.06
2018-08-19T01:11:54.944Z,1018.05
2018-08-19T01:12:54.947Z,1018.07
2018-08-19T01:13:55.391Z,1018.05
2018-08-19T01:14:55.394Z,1018.05
2018-08-19T01:15:55.391Z,1018.06
2018-08-19T01:16:54.947Z,1018.09
2018-08-19T01:17:54.497Z,1018.11
2018-08-19T01:18:55.392Z,1018.11
2018-08-19T01:19:55.397Z,1018.15
2018-08-19T01:20:55.394Z,1018.15
2018-08-19T01:21:54.449Z,1018.18
2018-08-19T01:22:54.897Z,1018.17
2018-08-19T01:23:54.897Z,1018.16
2018-08-19T01:24:54.895Z,1018.21
2018-08-19T01:25:54.894Z,1018.17
2018-08-19T01:26:54.461Z,1018.21
2018-08-19T01:27:54.897Z,1018.21
2018-08-19T01:28:54.896Z,1018.20
2018-08-19T01:29:54.896Z,1018.24
2018-08-19T01:30:54.900Z,1018.24
2018-08-19T01:31:54.454Z,1018.24
2018-08-19T01:32:54.108Z,1018.25
2018-08-19T01:33:54.897Z,1018.22
2018-08-19T01:34:54.451Z,1018.24
2018-08-19T01:35:54.897Z,1018.24
2018-08-19T01:36:54.896Z,1018.26
2018-08-19T01:37:54.895Z,1018.29
2018-08-19T01:38:54.467Z,1018.26
2018-08-19T01:39:54.911Z,1018.26
2018-08-19T01:40:54.405Z,1018.28
2018-08-19T01:41:54.398Z,1018.28
2018-08-19T01:42:53.844Z,1018.26
2018-08-19T01:43:53.871Z,1018.25
2018-08-19T01:44:54.401Z,1018.27
2018-08-19T01:45:54.400Z,1018.27
2018-08-19T01:46:54.409Z,1018.27
2018-08-19T01:47:53.714Z,1018.27
2018-08-19T01:48:53.960Z,1018.24
2018-08-19T01:49:53.959Z,1018.28
2018-08-19T01:50:54.402Z,1018.26
2018-08-19T01:51:54.401Z,1018.21
2018-08-19T01:52:54.405Z,1018.23
2018-08-19T01:53:54.403Z,1018.22
2018-08-19T01:54:53.958Z,1018.22
2018-08-19T01:55:54.406Z,1018.20
2018-08-19T01:56:54.406Z,1018.22
2018-08-19T01:57:54.401Z,1018.27
2018-08-19T01:58:54.399Z,1018.26
2018-08-19T01:59:53.449Z,1018.23
2018-08-19T02:00:53.903Z,1018.23
2018-08-19T02:01:53.928Z,1018.26
2018-08-19T02:02:53.322Z,1018.27
2018-08-19T02:03:53.908Z,1018.25
2018-08-19T02:04:53.458Z,1018.23
2018-08-19T02:05:53.456Z,1018.24
2018-08-19T02:06:53.903Z,1018.21
2018-08-19T02:07:53.909Z,1018.25
2018-08-19T02:08:55.905Z,1018.21
2018-08-19T02:09:53.908Z,1018.21
2018-08-19T02:10:53.155Z,1018.21
2018-08-19T02:11:53.902Z,1018.17
2018-08-19T02:12:53.905Z,1018.19
2018-08-19T02:13:53.906Z,1018.17
2018-08-19T02:14:53.904Z,1018.17
2018-08-19T02:15:53.458Z,1018.16
2018-08-19T02:16:53.906Z,1018.21
2018-08-19T02:17:52.925Z,1018.20
2018-08-19T02:18:53.405Z,1018.19
2018-08-19T02:19:55.407Z,1018.22
2018-08-19T02:20:52.966Z,1018.23
2018-08-19T02:21:53.405Z,1018.25
2018-08-19T02:22:53.403Z,1018.22
2018-08-19T02:23:53.407Z,1018.22
2018-08-19T02:24:53.405Z,1018.23
2018-08-19T02:25:52.960Z,1018.21
2018-08-19T02:26:53.413Z,1018.25
2018-08-19T02:27:53.411Z,1018.24
2018-08-19T02:28:53.408Z,1018.24
2018-08-19T02:29:53.406Z,1018.20
2018-08-19T02:30:52.984Z,1018.22
2018-08-19T02:31:53.414Z,1018.25
2018-08-19T02:32:52.530Z,1018.18
2018-08-19T02:33:53.409Z,1018.21
2018-08-19T02:34:53.414Z,1018.20
2018-08-19T02:35:52.964Z,1018.19
2018-08-19T02:36:53.409Z,1018.15
2018-08-19T02:37:52.919Z,1018.12
2018-08-19T02:38:53.816Z,1018.13
2018-08-19T02:39:52.909Z,1018.04
2018-08-19T02:40:52.469Z,1018.04
2018-08-19T02:41:52.465Z,1018.03
2018-08-19T02:42:53.047Z,1018.05
2018-08-19T02:43:52.913Z,1018.02
2018-08-19T02:44:52.924Z,1018.05
2018-08-19T02:45:52.912Z,1018.04
2018-08-19T02:46:52.466Z,1018.03
2018-08-19T02:47:52.136Z,1018.02
2018-08-19T02:48:52.958Z,1018.05
2018-08-19T02:49:53.017Z,1018.04
2018-08-19T02:50:52.466Z,1018.08
2018-08-19T02:51:52.471Z,1018.04
2018-08-19T02:52:52.942Z,1018.03
2018-08-19T02:53:53.819Z,1018.07
2018-08-19T02:54:53.819Z,1018.07
2018-08-19T02:55:51.926Z,1018.09
2018-08-19T02:56:51.975Z,1018.07
2018-08-19T02:57:52.416Z,1018.04
2018-08-19T02:58:52.413Z,1018.05
2018-08-19T02:59:52.462Z,1018.03
2018-08-19T03:00:51.799Z,1017.99
2018-08-19T03:01:51.970Z,1018.03
2018-08-19T03:02:51.743Z,1018.03
2018-08-19T03:03:52.413Z,1018.01
2018-08-19T03:04:52.414Z,1018.02
2018-08-19T03:05:52.413Z,1018.02
2018-08-19T03:06:51.970Z,1018.01
2018-08-19T03:07:52.413Z,1018.00
2018-08-19T03:08:51.968Z,1018.01
2018-08-19T03:09:51.980Z,1018.02
2018-08-19T03:10:54.414Z,1018.03
2018-08-19T03:11:52.416Z,1018.00
2018-08-19T03:12:52.465Z,1017.98
2018-08-19T03:13:52.426Z,1017.98
2018-08-19T03:14:51.475Z,1018.00
2018-08-19T03:15:51.916Z,1018.00
2018-08-19T03:16:51.919Z,1018.02
2018-08-19T03:17:51.345Z,1018.00
2018-08-19T03:18:51.917Z,1018.03
2018-08-19T03:19:51.470Z,1018.02
2018-08-19T03:20:51.920Z,1018.05
2018-08-19T03:21:51.917Z,1018.03
2018-08-19T03:22:51.916Z,1018.05
2018-08-19T03:23:51.927Z,1018.02
2018-08-19T03:24:51.474Z,1018.00
2018-08-19T03:25:51.921Z,1017.98
2018-08-19T03:26:51.926Z,1017.96
2018-08-19T03:27:51.917Z,1017.95
2018-08-19T03:28:51.920Z,1018.00
2018-08-19T03:29:51.478Z,1017.98
2018-08-19T03:30:51.921Z,1017.97
2018-08-19T03:31:51.474Z,1017.94
2018-08-19T03:32:50.942Z,1017.99
2018-08-19T03:33:51.422Z,1017.98
2018-08-19T03:34:51.420Z,1018.01
2018-08-19T03:35:51.418Z,1018.02
2018-08-19T03:36:50.973Z,1017.98
2018-08-19T03:37:51.432Z,1018.00
2018-08-19T03:38:51.423Z,1018.01
2018-08-19T03:39:50.979Z,1017.98
2018-08-19T03:40:51.420Z,1018.00
2018-08-19T03:41:51.427Z,1018.02
2018-08-19T03:42:51.421Z,1018.04
2018-08-19T03:43:51.433Z,1018.07
2018-08-19T03:44:50.982Z,1018.07
2018-08-19T03:45:51.432Z,1018.06
2018-08-19T03:46:51.430Z,1018.07
2018-08-19T03:47:50.539Z,1018.04
2018-08-19T03:48:51.422Z,1018.01
2018-08-19T03:49:50.975Z,1018.07
2018-08-19T03:50:51.420Z,1018.10
2018-08-19T03:51:51.423Z,1018.11
2018-08-19T03:52:50.923Z,1018.10
2018-08-19T03:53:50.479Z,1018.11
2018-08-19T03:54:50.408Z,1018.08
2018-08-19T03:55:50.933Z,1018.12
2018-08-19T03:56:50.299Z,1018.13
2018-08-19T03:57:50.924Z,1018.09
2018-08-19T03:58:50.930Z,1018.13
2018-08-19T03:59:50.491Z,1018.09
2018-08-19T04:00:50.931Z,1018.08
2018-08-19T04:01:50.928Z,1018.09
2018-08-19T04:02:50.137Z,1018.07
2018-08-19T04:03:50.926Z,1018.10
2018-08-19T04:04:50.492Z,1018.13
2018-08-19T04:05:50.924Z,1018.13
2018-08-19T04:06:50.929Z,1018.12
2018-08-19T04:07:51.007Z,1018.13
2018-08-19T04:08:50.926Z,1018.11
2018-08-19T04:09:50.006Z,1018.16
2018-08-19T04:10:50.432Z,1018.15
2018-08-19T04:11:50.430Z,1018.17
2018-08-19T04:12:50.429Z,1018.13
2018-08-19T04:13:50.429Z,1018.17
2018-08-19T04:14:49.989Z,1018.14
2018-08-19T04:15:50.430Z,1018.17
2018-08-19T04:16:50.004Z,1018.13
2018-08-19T04:17:49.737Z,1018.16
2018-08-19T04:18:50.426Z,1018.18
2018-08-19T04:19:50.441Z,1018.20
2018-08-19T04:20:50.426Z,1018.23
2018-08-19T04:21:49.981Z,1018.24
2018-08-19T04:22:50.430Z,1018.27
2018-08-19T04:23:50.429Z,1018.26
2018-08-19T04:24:50.443Z,1018.29
2018-08-19T04:25:49.984Z,1018.28
2018-08-19T04:26:49.565Z,1018.31
2018-08-19T04:27:50.430Z,1018.32
2018-08-19T04:28:50.431Z,1018.33
2018-08-19T04:29:49.935Z,1018.34
2018-08-19T04:30:49.440Z,1018.33
2018-08-19T04:31:49.483Z,1018.33
2018-08-19T04:32:49.341Z,1018.38
2018-08-19T04:33:49.930Z,1018.32
2018-08-19T04:34:49.934Z,1018.32
2018-08-19T04:35:49.932Z,1018.32
2018-08-19T04:36:50.337Z,1018.33
2018-08-19T04:37:49.930Z,1018.31
2018-08-19T04:38:49.932Z,1018.35
2018-08-19T04:39:49.937Z,1018.37
2018-08-19T04:40:50.010Z,1018.37
2018-08-19T04:41:49.486Z,1018.40
2018-08-19T04:42:49.943Z,1018.45
2018-08-19T04:43:49.934Z,1018.44
2018-08-19T04:44:49.934Z,1018.41
2018-08-19T04:45:49.930Z,1018.43
2018-08-19T04:46:49.486Z,1018.42
2018-08-19T04:47:48.948Z,1018.44
2018-08-19T04:48:49.433Z,1018.45
2018-08-19T04:49:49.434Z,1018.48
2018-08-19T04:50:49.438Z,1018.45
2018-08-19T04:51:48.994Z,1018.45
2018-08-19T04:52:49.002Z,1018.46
2018-08-19T04:53:49.435Z,1018.43
2018-08-19T04:54:49.435Z,1018.41
2018-08-19T04:55:48.740Z,1018.44
2018-08-19T04:56:49.437Z,1018.42
2018-08-19T04:57:48.988Z,1018.46
2018-08-19T04:58:49.445Z,1018.43
2018-08-19T04:59:49.451Z,1018.48
2018-08-19T05:00:49.436Z,1018.51
2018-08-19T05:01:48.589Z,1018.52
2018-08-19T05:02:48.602Z,1018.49
2018-08-19T05:03:48.990Z,1018.47
2018-08-19T05:04:49.439Z,1018.46
2018-08-19T05:05:49.436Z,1018.46
2018-08-19T05:06:49.442Z,1018.44
2018-08-19T05:07:48.965Z,1018.47
2018-08-19T05:08:48.493Z,1018.44
2018-08-19T05:09:48.937Z,1018.43
2018-08-19T05:10:48.500Z,1018.43
2018-08-19T05:11:48.937Z,1018.43
2018-08-19T05:12:48.493Z,1018.46
2018-08-19T05:13:48.938Z,1018.46
2018-08-19T05:14:48.943Z,1018.44
2018-08-19T05:15:48.490Z,1018.46
2018-08-19T05:16:48.972Z,1018.48
2018-08-19T05:17:48.176Z,1018.47
2018-08-19T05:18:48.196Z,1018.48
2018-08-19T05:19:48.940Z,1018.48
2018-08-19T05:20:48.938Z,1018.48
2018-08-19T05:21:48.940Z,1018.49
2018-08-19T05:22:48.943Z,1018.46
2018-08-19T05:23:48.503Z,1018.52
2018-08-19T05:24:48.940Z,1018.48
2018-08-19T05:25:48.943Z,1018.53
2018-08-19T05:26:48.971Z,1018.47
2018-08-19T05:27:48.445Z,1018.50
2018-08-19T05:28:47.995Z,1018.48
2018-08-19T05:29:48.440Z,1018.46
2018-08-19T05:30:48.443Z,1018.45
2018-08-19T05:31:48.440Z,1018.49
2018-08-19T05:32:47.852Z,1018.49
2018-08-19T05:33:47.998Z,1018.51
2018-08-19T05:34:48.000Z,1018.50
2018-08-19T05:35:47.728Z,1018.49
2018-08-19T05:36:48.445Z,1018.53
2018-08-19T05:37:48.452Z,1018.49
2018-08-19T05:38:48.443Z,1018.49
2018-08-19T05:39:47.999Z,1018.51
2018-08-19T05:40:48.006Z,1018.52
2018-08-19T05:41:48.447Z,1018.47
2018-08-19T05:42:48.448Z,1018.51
2018-08-19T05:43:48.443Z,1018.51
2018-08-19T05:44:48.444Z,1018.51
2018-08-19T05:45:48.000Z,1018.54
2018-08-19T05:46:48.495Z,1018.55
2018-08-19T05:47:47.428Z,1018.52
2018-08-19T05:48:47.944Z,1018.54
2018-08-19T05:49:47.950Z,1018.59
2018-08-19T05:50:47.500Z,1018.56
2018-08-19T05:51:47.965Z,1018.53
2018-08-19T05:52:47.953Z,1018.57
2018-08-19T05:53:47.949Z,1018.58
2018-08-19T05:54:47.955Z,1018.61
2018-08-19T05:55:47.282Z,1018.57
2018-08-19T05:56:47.952Z,1018.60
2018-08-19T05:57:47.957Z,1018.61
2018-08-19T05:58:47.948Z,1018.66
2018-08-19T05:59:47.951Z,1018.63
2018-08-19T06:00:47.508Z,1018.66
2018-08-19T06:01:47.506Z,1018.67
2018-08-19T06:02:47.066Z,1018.68
2018-08-19T06:03:47.503Z,1018.67
2018-08-19T06:04:47.948Z,1018.68
2018-08-19T06:05:47.951Z,1018.64
2018-08-19T06:06:47.518Z,1018.65
2018-08-19T06:07:47.450Z,1018.63
2018-08-19T06:08:46.929Z,1018.65
2018-08-19T06:09:47.458Z,1018.63
2018-08-19T06:10:46.880Z,1018.65
2018-08-19T06:11:47.020Z,1018.64
2018-08-19T06:12:47.452Z,1018.64
2018-08-19T06:13:47.457Z,1018.63
2018-08-19T06:14:47.452Z,1018.61
2018-08-19T06:15:47.456Z,1018.63
2018-08-19T06:16:47.020Z,1018.65
2018-08-19T06:17:46.709Z,1018.66
2018-08-19T06:18:47.453Z,1018.70
2018-08-19T06:19:47.455Z,1018.69
2018-08-19T06:20:47.459Z,1018.68
2018-08-19T06:21:47.025Z,1018.69
2018-08-19T06:22:47.454Z,1018.72
2018-08-19T06:23:47.458Z,1018.67
2018-08-19T06:24:47.456Z,1018.72
2018-08-19T06:25:47.458Z,1018.72
2018-08-19T06:26:47.008Z,1018.72
2018-08-19T06:27:47.456Z,1018.71
2018-08-19T06:28:46.962Z,1018.71
2018-08-19T06:29:46.514Z,1018.73
2018-08-19T06:30:46.955Z,1018.69
2018-08-19T06:31:46.955Z,1018.72
2018-08-19T06:32:46.368Z,1018.73
2018-08-19T06:33:46.959Z,1018.73
2018-08-19T06:34:46.611Z,1018.79
2018-08-19T06:35:46.956Z,1018.75
2018-08-19T06:36:46.956Z,1018.72
2018-08-19T06:37:46.514Z,1018.73
2018-08-19T06:38:46.961Z,1018.75
2018-08-19T06:39:46.550Z,1018.67
2018-08-19T06:40:46.964Z,1018.69
2018-08-19T06:41:46.960Z,1018.69
2018-08-19T06:42:46.133Z,1018.70
2018-08-19T06:43:46.965Z,1018.69
2018-08-19T06:44:46.131Z,1018.69
2018-08-19T06:45:46.068Z,1018.69
2018-08-19T06:46:46.958Z,1018.70
2018-08-19T06:47:46.075Z,1018.70
2018-08-19T06:48:46.961Z,1018.66
2018-08-19T06:49:46.959Z,1018.65
2018-08-19T06:50:46.463Z,1018.66
2018-08-19T06:51:46.460Z,1018.66
2018-08-19T06:52:46.012Z,1018.69
2018-08-19T06:53:46.464Z,1018.65
2018-08-19T06:54:46.462Z,1018.62
2018-08-19T06:55:45.885Z,1018.62
2018-08-19T06:56:46.466Z,1018.61
2018-08-19T06:57:46.462Z,1018.62
2018-08-19T06:58:46.017Z,1018.65
2018-08-19T06:59:46.477Z,1018.63
2018-08-19T07:00:46.020Z,1018.64
2018-08-19T07:01:46.461Z,1018.67
2018-08-19T07:02:45.697Z,1018.69
2018-08-19T07:03:46.531Z,1018.67
2018-08-19T07:04:46.467Z,1018.68
2018-08-19T07:05:46.022Z,1018.67
2018-08-19T07:06:46.464Z,1018.63
2018-08-19T07:07:46.465Z,1018.65
2018-08-19T07:08:46.466Z,1018.67
2018-08-19T07:09:46.465Z,1018.68
2018-08-19T07:10:46.014Z,1018.67
2018-08-19T07:11:46.467Z,1018.68
2018-08-19T07:12:45.989Z,1018.69
2018-08-19T07:13:45.991Z,1018.65
2018-08-19T07:14:45.966Z,1018.69
2018-08-19T07:15:45.531Z,1018.69
2018-08-19T07:16:45.966Z,1018.69
2018-08-19T07:17:45.347Z,1018.71
2018-08-19T07:18:46.033Z,1018.74
2018-08-19T07:19:45.970Z,1018.77
2018-08-19T07:20:45.528Z,1018.72
2018-08-19T07:21:45.275Z,1018.77
2018-08-19T07:22:45.969Z,1018.71
2018-08-19T07:23:46.006Z,1018.71
2018-08-19T07:24:46.008Z,1018.71
2018-08-19T07:25:45.526Z,1018.68
2018-08-19T07:26:45.969Z,1018.67
2018-08-19T07:27:45.968Z,1018.69
2018-08-19T07:28:45.976Z,1018.68
2018-08-19T07:29:46.032Z,1018.61
2018-08-19T07:30:45.538Z,1018.63
2018-08-19T07:31:45.972Z,1018.63
2018-08-19T07:32:45.017Z,1018.60
2018-08-19T07:33:45.979Z,1018.59
2018-08-19T07:34:45.474Z,1018.60
2018-08-19T07:35:45.035Z,1018.59
2018-08-19T07:36:44.988Z,1018.62
2018-08-19T07:37:45.471Z,1018.61
2018-08-19T07:38:45.472Z,1018.64
2018-08-19T07:39:45.508Z,1018.66
2018-08-19T07:40:45.477Z,1018.61
2018-08-19T07:41:45.976Z,1018.61
2018-08-19T07:42:45.473Z,1018.65
2018-08-19T07:43:45.515Z,1018.63
2018-08-19T07:44:45.473Z,1018.59
2018-08-19T07:45:45.477Z,1018.57
2018-08-19T07:46:45.057Z,1018.57
2018-08-19T07:47:44.698Z,1018.59
2018-08-19T07:48:45.480Z,1018.59
2018-08-19T07:49:45.488Z,1018.55
2018-08-19T07:50:45.478Z,1018.55
2018-08-19T07:51:45.089Z,1018.59
2018-08-19T07:52:45.035Z,1018.55
2018-08-19T07:53:44.573Z,1018.58
2018-08-19T07:54:45.477Z,1018.61
2018-08-19T07:55:44.529Z,1018.64
2018-08-19T07:56:45.480Z,1018.61
2018-08-19T07:57:44.539Z,1018.62
2018-08-19T07:58:44.978Z,1018.63
2018-08-19T07:59:44.980Z,1018.60
2018-08-19T08:00:44.985Z,1018.61
2018-08-19T08:01:44.542Z,1018.63
2018-08-19T08:02:44.427Z,1018.62
2018-08-19T08:03:44.552Z,1018.68
2018-08-19T08:04:44.988Z,1018.68
2018-08-19T08:05:44.978Z,1018.65
2018-08-19T08:06:44.979Z,1018.71
2018-08-19T08:07:44.981Z,1018.68
2018-08-19T08:08:44.537Z,1018.65
2018-08-19T08:09:44.991Z,1018.64
2018-08-19T08:10:45.041Z,1018.59
2018-08-19T08:11:44.195Z,1018.60
2018-08-19T08:12:44.534Z,1018.60
2018-08-19T08:13:45.009Z,1018.58
2018-08-19T08:14:44.986Z,1018.54
2018-08-19T08:15:45.010Z,1018.55
2018-08-19T08:16:44.981Z,1018.56
2018-08-19T08:17:44.108Z,1018.56
2018-08-19T08:18:44.540Z,1018.56
2018-08-19T08:19:45.004Z,1018.53
2018-08-19T08:20:44.984Z,1018.54
2018-08-19T08:21:44.554Z,1018.52
2018-08-19T08:22:44.042Z,1018.53
2018-08-19T08:23:44.038Z,1018.54
2018-08-19T08:24:44.485Z,1018.53
2018-08-19T08:25:44.485Z,1018.53
2018-08-19T08:26:44.487Z,1018.50
2018-08-19T08:27:44.495Z,1018.52
2018-08-19T08:28:44.047Z,1018.51
2018-08-19T08:29:44.490Z,1018.49
2018-08-19T08:30:44.487Z,1018.45
2018-08-19T08:31:44.489Z,1018.47
2018-08-19T08:32:43.767Z,1018.46
2018-08-19T08:33:44.044Z,1018.47
2018-08-19T08:34:44.492Z,1018.44
2018-08-19T08:35:44.489Z,1018.48
2018-08-19T08:36:44.491Z,1018.45
2018-08-19T08:37:44.495Z,1018.45
2018-08-19T08:38:44.045Z,1018.46
2018-08-19T08:39:44.491Z,1018.45
2018-08-19T08:40:44.565Z,1018.46
2018-08-19T08:41:44.491Z,1018.43
2018-08-19T08:42:44.491Z,1018.40
2018-08-19T08:43:44.046Z,1018.46
2018-08-19T08:44:44.071Z,1018.44
2018-08-19T08:45:43.489Z,1018.49
2018-08-19T08:46:43.990Z,1018.49
2018-08-19T08:47:43.604Z,1018.45
2018-08-19T08:48:43.996Z,1018.45
2018-08-19T08:49:43.551Z,1018.46
2018-08-19T08:50:43.996Z,1018.46
2018-08-19T08:51:43.997Z,1018.40
2018-08-19T08:52:43.999Z,1018.44
2018-08-19T08:53:43.992Z,1018.44
2018-08-19T08:54:43.554Z,1018.45
2018-08-19T08:55:43.997Z,1018.44
2018-08-19T08:56:44.000Z,1018.38
2018-08-19T08:57:43.996Z,1018.42
2018-08-19T08:58:43.995Z,1018.37
2018-08-19T08:59:43.547Z,1018.40
2018-08-19T09:00:44.015Z,1018.41
2018-08-19T09:01:44.003Z,1018.41
2018-08-19T09:02:43.149Z,1018.39
2018-08-19T09:03:43.167Z,1018.42
2018-08-19T09:04:44.000Z,1018.45
2018-08-19T09:05:43.554Z,1018.41
2018-08-19T09:06:44.026Z,1018.38
2018-08-19T09:07:44.000Z,1018.38
2018-08-19T09:08:43.995Z,1018.41
2018-08-19T09:09:44.014Z,1018.39
2018-08-19T09:10:43.065Z,1018.38
2018-08-19T09:11:43.517Z,1018.40
2018-08-19T09:12:43.498Z,1018.37
2018-08-19T09:13:43.544Z,1018.36
2018-08-19T09:14:43.501Z,1018.37
2018-08-19T09:15:43.062Z,1018.36
2018-08-19T09:16:43.501Z,1018.31
2018-08-19T09:17:42.844Z,1018.34
2018-08-19T09:18:43.505Z,1018.34
2018-08-19T09:19:43.057Z,1018.31
2018-08-19T09:20:42.831Z,1018.29
2018-08-19T09:21:43.501Z,1018.29
2018-08-19T09:22:43.504Z,1018.28
2018-08-19T09:23:43.503Z,1018.28
2018-08-19T09:24:43.504Z,1018.25
2018-08-19T09:25:43.058Z,1018.23
2018-08-19T09:26:43.510Z,1018.20
2018-08-19T09:27:43.513Z,1018.18
2018-08-19T09:28:43.064Z,1018.24
2018-08-19T09:29:43.514Z,1018.18
2018-08-19T09:30:43.505Z,1018.23
2018-08-19T09:31:43.506Z,1018.19
2018-08-19T09:32:42.548Z,1018.21
2018-08-19T09:33:43.061Z,1018.19
2018-08-19T09:34:43.009Z,1018.15
2018-08-19T09:35:43.008Z,1018.16
2018-08-19T09:36:43.015Z,1018.18
2018-08-19T09:37:42.460Z,1018.13
2018-08-19T09:38:42.567Z,1018.14
2018-08-19T09:39:45.006Z,1018.11
2018-08-19T09:40:44.103Z,1018.10
2018-08-19T09:41:42.569Z,1018.07
2018-08-19T09:42:43.064Z,1018.09
2018-08-19T09:43:43.064Z,1018.05
2018-08-19T09:44:43.065Z,1018.05
2018-08-19T09:45:42.581Z,1018.02
2018-08-19T09:46:43.021Z,1018.05
2018-08-19T09:47:42.423Z,1018.04
2018-08-19T09:48:43.027Z,1018.07
2018-08-19T09:49:43.012Z,1018.04
2018-08-19T09:50:43.016Z,1018.00
2018-08-19T09:51:43.011Z,1017.96
2018-08-19T09:52:42.564Z,1017.98
2018-08-19T09:53:43.017Z,1017.96
2018-08-19T09:54:42.120Z,1017.93
2018-08-19T09:55:42.097Z,1017.90
2018-08-19T09:56:43.013Z,1017.90
2018-08-19T09:57:43.160Z,1017.92
2018-08-19T09:58:43.021Z,1017.90
2018-08-19T09:59:43.015Z,1017.90
2018-08-19T10:00:42.523Z,1017.94
2018-08-19T10:01:42.576Z,1017.92
2018-08-19T10:02:41.959Z,1017.89
2018-08-19T10:03:42.519Z,1017.88
2018-08-19T10:04:42.065Z,1017.88
2018-08-19T10:05:42.516Z,1017.88
2018-08-19T10:06:42.516Z,1017.83
2018-08-19T10:07:42.561Z,1017.87
2018-08-19T10:08:42.517Z,1017.82
2018-08-19T10:09:42.085Z,1017.80
2018-08-19T10:10:44.517Z,1017.81
2018-08-19T10:11:42.518Z,1017.80
2018-08-19T10:12:41.771Z,1017.78
2018-08-19T10:13:42.607Z,1017.79
2018-08-19T10:14:41.773Z,1017.73
2018-08-19T10:15:42.517Z,1017.74
2018-08-19T10:16:42.542Z,1017.77
2018-08-19T10:17:41.741Z,1017.80
2018-08-19T10:18:42.555Z,1017.77
2018-08-19T10:19:42.072Z,1017.79
2018-08-19T10:20:42.075Z,1017.78
2018-08-19T10:21:42.532Z,1017.77
2018-08-19T10:22:42.519Z,1017.76
2018-08-19T10:23:42.524Z,1017.70
2018-08-19T10:24:42.522Z,1017.71
2018-08-19T10:25:41.580Z,1017.69
2018-08-19T10:26:42.023Z,1017.69
2018-08-19T10:27:42.022Z,1017.66
2018-08-19T10:28:42.020Z,1017.63
2018-08-19T10:29:42.022Z,1017.63
2018-08-19T10:30:42.082Z,1017.59
2018-08-19T10:31:42.075Z,1017.59
2018-08-19T10:32:42.024Z,1017.57
2018-08-19T10:33:42.024Z,1017.56
2018-08-19T10:34:42.025Z,1017.55
2018-08-19T10:35:41.578Z,1017.55
2018-08-19T10:36:41.578Z,1017.49
2018-08-19T10:37:42.024Z,1017.53
2018-08-19T10:38:42.025Z,1017.53
2018-08-19T10:39:42.032Z,1017.48
2018-08-19T10:40:41.590Z,1017.53
2018-08-19T10:41:42.029Z,1017.49
2018-08-19T10:42:42.031Z,1017.47
2018-08-19T10:43:42.026Z,1017.46
2018-08-19T10:44:42.026Z,1017.45
2018-08-19T10:45:41.579Z,1017.44
2018-08-19T10:46:41.112Z,1017.37
2018-08-19T10:47:42.038Z,1017.39
2018-08-19T10:48:42.029Z,1017.35
2018-08-19T10:49:42.029Z,1017.34
2018-08-19T10:50:41.082Z,1017.31
2018-08-19T10:51:41.088Z,1017.28
2018-08-19T10:52:41.526Z,1017.26
2018-08-19T10:53:41.542Z,1017.24
2018-08-19T10:54:41.536Z,1017.23
2018-08-19T10:55:41.530Z,1017.21
2018-08-19T10:56:41.084Z,1017.23
2018-08-19T10:57:41.532Z,1017.16
2018-08-19T10:58:41.537Z,1017.19
2018-08-19T10:59:41.554Z,1017.20
2018-08-19T11:00:41.129Z,1017.16
2018-08-19T11:01:41.537Z,1017.18
2018-08-19T11:02:41.088Z,1017.19
2018-08-19T11:03:41.535Z,1017.18
2018-08-19T11:04:40.771Z,1017.17
2018-08-19T11:05:41.549Z,1017.19
2018-08-19T11:06:41.601Z,1017.14
2018-08-19T11:07:41.089Z,1017.11
2018-08-19T11:08:40.694Z,1017.14
2018-08-19T11:09:41.533Z,1017.11
2018-08-19T11:10:41.537Z,1017.11
2018-08-19T11:11:41.536Z,1017.09
2018-08-19T11:12:41.155Z,1017.09
2018-08-19T11:13:41.539Z,1017.09
2018-08-19T11:14:41.555Z,1017.07
2018-08-19T11:15:41.536Z,1017.02
2018-08-19T11:16:41.092Z,1017.07
2018-08-19T11:17:41.044Z,1017.04
2018-08-19T11:18:40.601Z,1017.00
2018-08-19T11:19:41.043Z,1016.97
2018-08-19T11:20:41.039Z,1017.00
2018-08-19T11:21:40.462Z,1016.97
2018-08-19T11:22:41.103Z,1016.97
2018-08-19T11:23:41.095Z,1017.02
2018-08-19T11:24:41.048Z,1017.02
2018-08-19T11:25:41.047Z,1017.04
2018-08-19T11:26:41.065Z,1016.99
2018-08-19T11:27:41.057Z,1016.98
2018-08-19T11:28:40.611Z,1016.95
2018-08-19T11:29:41.039Z,1016.95
2018-08-19T11:30:41.048Z,1016.91
2018-08-19T11:31:41.053Z,1016.91
2018-08-19T11:32:41.045Z,1016.91
2018-08-19T11:33:40.606Z,1016.85
2018-08-19T11:34:41.043Z,1016.86
2018-08-19T11:35:41.079Z,1016.85
2018-08-19T11:36:41.044Z,1016.83
2018-08-19T11:37:41.044Z,1016.84
2018-08-19T11:38:40.599Z,1016.84
2018-08-19T11:39:40.598Z,1016.81
2018-08-19T11:40:41.060Z,1016.76
2018-08-19T11:41:41.045Z,1016.80
2018-08-19T11:42:41.055Z,1016.79
2018-08-19T11:43:40.547Z,1016.78
2018-08-19T11:44:40.127Z,1016.75
2018-08-19T11:45:40.545Z,1016.79
2018-08-19T11:46:40.553Z,1016.77
2018-08-19T11:47:40.548Z,1016.77
2018-08-19T11:48:40.555Z,1016.73
2018-08-19T11:49:40.109Z,1016.68
2018-08-19T11:50:40.571Z,1016.60
2018-08-19T11:51:40.551Z,1016.65
2018-08-19T11:52:40.549Z,1016.62
2018-08-19T11:53:40.551Z,1016.61
2018-08-19T11:54:40.119Z,1016.62
2018-08-19T11:55:39.828Z,1016.62
2018-08-19T11:56:40.554Z,1016.59
2018-08-19T11:57:40.560Z,1016.62
2018-08-19T11:58:40.569Z,1016.62
2018-08-19T11:59:40.106Z,1016.57
2018-08-19T12:00:40.552Z,1016.53
2018-08-19T12:01:40.582Z,1016.53
2018-08-19T12:02:40.565Z,1016.49
2018-08-19T12:03:40.556Z,1016.49
2018-08-19T12:04:40.107Z,1016.50
2018-08-19T12:05:40.119Z,1016.48